Derma, Mississippi
Current Conditions -  °F | °C
As of 6:15 AM on Thursday 29 Jan 2015 (Local Time) from KGNF Reporting Station
Broken Clouds Broken Clouds  
Wind Chill: 55°   Ceiling: 9500
Heat Index: 55°   Visibility: 10mi
Dew Point: 41°   Wind: 8mph
Humidity: 58%   Direction: 210°SSW
Pressure: 30.12"   Gusts: NA
Location:  33.86°N, 89.28°W
Report Text: KGNF 291215Z AUTO 21007KT 10SM SCT070 BKN095 BKN120 13/05 A3012 RMK AO2
Loading
Personal Weather Stations






























Interactive Weather Map New forecast layout! Learn more

10-Day Weather Forecast

Advertisements
Track Severe Weather on mobile